createdAt,value
2023-09-05T00:01:56.838Z,98830.69
2023-09-05T00:04:23.786Z,98840.09
2023-09-05T00:06:50.573Z,98837.31
2023-09-05T00:09:19.565Z,98825.88
2023-09-05T00:11:47.102Z,98827.50
2023-09-05T00:14:14.165Z,98830.28
2023-09-05T00:16:40.941Z,98821.63
2023-09-05T00:19:07.706Z,98813.31
2023-09-05T00:21:34.412Z,98817.25
2023-09-05T00:24:34.696Z,98818.38
2023-09-05T00:27:07.659Z,98821.16
2023-09-05T00:29:34.571Z,98808.53
2023-09-05T00:32:02.217Z,98815.16
2023-09-05T00:34:37.588Z,98821.00
2023-09-05T00:39:42.501Z,98817.69
2023-09-05T00:42:13.663Z,98806.91
2023-09-05T00:44:40.528Z,98804.59
2023-09-05T00:47:08.064Z,98810.47
2023-09-05T00:49:42.996Z,98800.56
2023-09-05T00:52:11.834Z,98803.25
2023-09-05T00:54:39.116Z,98804.34
2023-09-05T00:57:07.191Z,98805.13
2023-09-05T00:59:34.065Z,98807.94
2023-09-05T01:02:00.937Z,98808.31
2023-09-05T01:04:27.856Z,98812.31
2023-09-05T01:07:14.599Z,98808.38
2023-09-05T01:09:52.242Z,98809.50
2023-09-05T01:12:19.450Z,98807.09
2023-09-05T01:14:46.229Z,98814.56
2023-09-05T01:17:13.045Z,98810.22
2023-09-05T01:22:23.078Z,98811.41
2023-09-05T01:24:51.522Z,98815.72
2023-09-05T01:27:20.791Z,98818.94
2023-09-05T01:29:48.791Z,98817.28
2023-09-05T01:32:16.629Z,98812.56
2023-09-05T01:34:43.525Z,98817.72
2023-09-05T01:37:15.830Z,98824.03
2023-09-05T01:39:45.933Z,98814.19
2023-09-05T01:42:12.711Z,98815.06
2023-09-05T01:44:40.237Z,98810.13
2023-09-05T01:47:07.453Z,98815.22
2023-09-05T01:49:34.363Z,98809.41
2023-09-05T01:52:01.103Z,98811.41
2023-09-05T01:54:27.900Z,98810.75
2023-09-05T01:56:54.695Z,98804.53
2023-09-05T01:59:22.094Z,98809.31
2023-09-05T02:01:48.996Z,98803.84
2023-09-05T02:04:15.775Z,98800.81
2023-09-05T02:06:42.553Z,98792.13
2023-09-05T02:09:09.752Z,98797.28
2023-09-05T02:11:36.514Z,98788.22
2023-09-05T02:14:03.299Z,98794.56
2023-09-05T02:16:30.152Z,98789.13
2023-09-05T02:18:56.876Z,98794.22
2023-09-05T02:21:23.561Z,98802.16
2023-09-05T02:23:50.324Z,98803.31
2023-09-05T02:26:17.275Z,98802.56
2023-09-05T02:28:46.431Z,98800.59
2023-09-05T02:31:13.377Z,98798.63
2023-09-05T02:33:40.176Z,98797.06
2023-09-05T02:36:20.014Z,98793.53
2023-09-05T02:38:47.674Z,98790.38
2023-09-05T02:41:18.390Z,98792.78
2023-09-05T02:43:48.200Z,98789.97
2023-09-05T02:46:15.983Z,98790.72
2023-09-05T02:48:43.696Z,98792.28
2023-09-05T02:51:13.889Z,98798.22
2023-09-05T02:53:40.832Z,98799.81
2023-09-05T02:56:07.855Z,98804.16
2023-09-05T02:58:35.222Z,98807.72
2023-09-05T03:01:04.095Z,98807.31
2023-09-05T03:03:32.375Z,98806.88
2023-09-05T03:06:11.949Z,98813.63
2023-09-05T03:08:39.959Z,98819.53
2023-09-05T03:11:06.751Z,98815.97
2023-09-05T03:13:33.523Z,98817.59
2023-09-05T03:16:00.364Z,98816.78
2023-09-05T03:18:27.221Z,98825.47
2023-09-05T03:20:54.245Z,98823.50
2023-09-05T03:23:24.216Z,98820.72
2023-09-05T03:25:52.504Z,98815.63
2023-09-05T03:28:19.257Z,98815.22
2023-09-05T03:38:27.434Z,98814.09
2023-09-05T03:40:56.178Z,98813.69
2023-09-05T03:43:23.170Z,98814.88
2023-09-05T03:45:50.201Z,98814.09
2023-09-05T03:48:17.587Z,98811.28
2023-09-05T03:50:44.448Z,98814.88
2023-09-05T03:53:11.231Z,98804.63
2023-09-05T03:55:38.006Z,98809.75
2023-09-05T03:58:05.884Z,98810.53
2023-09-05T04:00:35.893Z,98808.19
2023-09-05T04:03:06.030Z,98804.63
2023-09-05T04:05:35.505Z,98807.41
2023-09-05T04:08:03.029Z,98803.47
2023-09-05T04:10:29.999Z,98792.84
2023-09-05T04:12:57.439Z,98791.66
2023-09-05T04:15:24.762Z,98786.53
2023-09-05T04:17:54.177Z,98786.91
2023-09-05T04:20:21.083Z,98794.81
2023-09-05T04:22:47.903Z,98799.94
2023-09-05T04:25:16.142Z,98796.78
2023-09-05T04:30:21.969Z,98800.72
2023-09-05T04:32:48.727Z,98805.06
2023-09-05T04:35:15.512Z,98801.91
2023-09-05T04:37:42.246Z,98805.44
2023-09-05T04:40:09.490Z,98805.84
2023-09-05T04:42:37.110Z,98800.72
2023-09-05T04:45:04.105Z,98799.53
2023-09-05T04:47:31.001Z,98803.06
2023-09-05T04:50:01.090Z,98803.88
2023-09-05T04:52:30.029Z,98803.06
2023-09-05T04:54:58.512Z,98807.00
2023-09-05T04:57:26.203Z,98799.94
2023-09-05T04:59:58.646Z,98787.72
2023-09-05T05:02:26.860Z,98795.22
2023-09-05T05:04:55.151Z,98798.75
2023-09-05T05:07:22.381Z,98793.63
2023-09-05T05:09:49.265Z,98805.06
2023-09-05T05:12:18.313Z,98805.84
2023-09-05T05:14:45.167Z,98797.16
2023-09-05T05:19:45.571Z,98810.16
2023-09-05T05:22:12.529Z,98808.19
2023-09-05T05:24:39.406Z,98807.03
2023-09-05T05:27:06.121Z,98814.47
2023-09-05T05:29:34.145Z,98820.41
2023-09-05T05:32:02.688Z,98827.09
2023-09-05T05:37:05.218Z,98827.88
2023-09-05T05:39:31.931Z,98823.13
2023-09-05T05:41:58.751Z,98820.78
2023-09-05T05:44:25.510Z,98822.75
2023-09-05T05:46:52.562Z,98816.06
2023-09-05T05:49:19.265Z,98811.34
2023-09-05T05:54:18.565Z,98808.59
2023-09-05T05:56:45.545Z,98810.56
2023-09-05T05:59:12.252Z,98813.72
2023-09-05T06:01:39.201Z,98816.44
2023-09-05T06:04:05.966Z,98818.41
2023-09-05T06:06:33.436Z,98820.78
2023-09-05T06:09:00.234Z,98816.06
2023-09-05T06:11:27.011Z,98817.63
2023-09-05T06:13:53.944Z,98821.97
2023-09-05T06:16:22.216Z,98818.41
2023-09-05T06:18:49.383Z,98823.13
2023-09-05T06:21:16.254Z,98828.63
2023-09-05T06:23:43.272Z,98827.00
2023-09-05T06:26:10.084Z,98822.16
2023-09-05T06:28:36.920Z,98828.34
2023-09-05T06:31:05.498Z,98829.44
2023-09-05T06:33:32.221Z,98830.53
2023-09-05T06:35:58.928Z,98831.63
2023-09-05T06:38:27.656Z,98827.97
2023-09-05T06:40:54.606Z,98819.84
2023-09-05T06:43:21.328Z,98821.91
2023-09-05T06:45:48.081Z,98817.72
2023-09-05T06:48:14.932Z,98826.91
2023-09-05T06:50:41.762Z,98813.63
2023-09-05T06:53:08.515Z,98820.06
2023-09-05T06:58:14.276Z,98827.97
2023-09-05T07:00:41.027Z,98832.63
2023-09-05T07:03:07.834Z,98830.78
2023-09-05T07:05:42.338Z,98825.59
2023-09-05T07:10:42.725Z,98845.44
2023-09-05T07:13:09.477Z,98852.50
2023-09-05T07:15:36.401Z,98842.94
2023-09-05T07:18:03.247Z,98841.47
2023-09-05T07:20:30.046Z,98844.03
2023-09-05T07:22:56.789Z,98838.56
2023-09-05T07:25:23.539Z,98841.66
2023-09-05T07:27:50.307Z,98836.72
2023-09-05T07:30:17.789Z,98850.47
2023-09-05T07:32:47.534Z,98843.50
2023-09-05T07:35:14.319Z,98850.09
2023-09-05T07:37:41.197Z,98848.72
2023-09-05T07:40:08.594Z,98849.56
2023-09-05T07:42:35.579Z,98849.09
2023-09-05T07:45:03.949Z,98845.53
2023-09-05T07:47:31.467Z,98839.56
2023-09-05T07:49:58.325Z,98836.28
2023-09-05T07:52:25.114Z,98834.44
2023-09-05T07:54:51.845Z,98840.53
2023-09-05T07:57:18.653Z,98840.44
2023-09-05T07:59:46.098Z,98847.50
2023-09-05T08:02:12.988Z,98847.31
2023-09-05T08:04:41.332Z,98849.63
2023-09-05T08:07:08.428Z,98854.13
2023-09-05T08:09:35.303Z,98847.09
2023-09-05T08:12:03.070Z,98842.97
2023-09-05T08:14:30.384Z,98842.31
2023-09-05T08:16:57.600Z,98828.91
2023-09-05T08:19:24.483Z,98839.94
2023-09-05T08:21:51.205Z,98840.72
2023-09-05T08:24:17.943Z,98837.16
2023-09-05T08:26:44.696Z,98832.78
2023-09-05T08:29:11.459Z,98834.81
2023-09-05T08:31:38.380Z,98826.44
2023-09-05T08:34:05.198Z,98823.00
2023-09-05T08:36:33.361Z,98831.59
2023-09-05T08:39:00.956Z,98826.44
2023-09-05T08:44:06.533Z,98826.31
2023-09-05T08:46:33.477Z,98823.41
2023-09-05T08:49:00.337Z,98817.56
2023-09-05T08:51:33.257Z,98823.13
2023-09-05T08:56:35.520Z,98825.50
2023-09-05T08:59:02.978Z,98818.34
2023-09-05T09:01:33.453Z,98821.13
2023-09-05T09:04:02.461Z,98821.41
2023-09-05T09:06:29.376Z,98825.75
2023-09-05T09:08:57.440Z,98809.75
2023-09-05T09:11:24.499Z,98813.94
2023-09-05T09:13:58.974Z,98810.72
2023-09-05T09:16:26.082Z,98810.63
2023-09-05T09:19:04.233Z,98808.00
2023-09-05T09:21:32.664Z,98812.34
2023-09-05T09:24:09.327Z,98811.34
2023-09-05T09:26:40.099Z,98810.53
2023-09-05T09:29:11.200Z,98812.59
2023-09-05T09:31:41.750Z,98817.66
2023-09-05T09:34:09.356Z,98813.28
2023-09-05T09:36:38.621Z,98817.94
2023-09-05T09:41:48.460Z,98814.31
2023-09-05T09:44:27.309Z,98807.94
2023-09-05T09:46:55.997Z,98812.28
2023-09-05T09:49:28.467Z,98807.63
2023-09-05T09:51:57.255Z,98796.38
2023-09-05T09:54:38.060Z,98803.25
2023-09-05T09:57:06.376Z,98795.41
2023-09-05T09:59:38.950Z,98780.97
2023-09-05T10:02:16.675Z,98785.72
2023-09-05T10:04:45.508Z,98782.06
2023-09-05T10:07:17.273Z,98772.56
2023-09-05T10:09:46.619Z,98785.53
2023-09-05T10:12:15.821Z,98790.44
2023-09-05T10:14:43.585Z,98787.44
2023-09-05T10:17:11.070Z,98784.59
2023-09-05T10:19:39.965Z,98781.25
2023-09-05T10:22:07.912Z,98770.47
2023-09-05T10:24:36.709Z,98764.25
2023-09-05T10:27:05.197Z,98764.56
2023-09-05T10:32:27.354Z,98766.97
2023-09-05T10:34:57.089Z,98768.56
2023-09-05T10:37:28.431Z,98763.66
2023-09-05T10:39:57.369Z,98773.09
2023-09-05T10:42:33.180Z,98759.13
2023-09-05T10:45:18.464Z,98764.03
2023-09-05T10:47:45.431Z,98755.41
2023-09-05T10:50:14.020Z,98765.16
2023-09-05T10:52:40.833Z,98759.47
2023-09-05T10:55:30.914Z,98744.25
2023-09-05T10:57:58.258Z,98746.13
2023-09-05T11:00:28.393Z,98733.44
2023-09-05T11:02:57.502Z,98737.94
2023-09-05T11:05:28.524Z,98738.59
2023-09-05T11:07:56.626Z,98739.06
2023-09-05T11:10:34.851Z,98740.44
2023-09-05T11:13:15.696Z,98747.31
2023-09-05T11:15:46.728Z,98742.28
2023-09-05T11:18:15.937Z,98738.38
2023-09-05T11:20:49.959Z,98741.59
2023-09-05T11:23:18.816Z,98735.50
2023-09-05T11:25:48.005Z,98734.34
2023-09-05T11:28:16.148Z,98734.56
2023-09-05T11:30:47.696Z,98737.63
2023-09-05T11:33:16.099Z,98729.16
2023-09-05T11:35:46.805Z,98725.97
2023-09-05T11:38:14.507Z,98723.94
2023-09-05T11:40:42.690Z,98711.41
2023-09-05T11:43:10.936Z,98732.84
2023-09-05T11:45:39.158Z,98719.31
2023-09-05T11:48:08.932Z,98715.97
2023-09-05T11:50:36.093Z,98721.38
2023-09-05T11:53:05.163Z,98707.53
2023-09-05T11:55:32.316Z,98704.78
2023-09-05T11:58:00.527Z,98703.34
2023-09-05T12:00:28.186Z,98703.06
2023-09-05T12:02:57.925Z,98711.34
2023-09-05T12:05:24.839Z,98709.13
2023-09-05T12:07:52.556Z,98695.69
2023-09-05T12:10:19.725Z,98692.13
2023-09-05T12:12:56.584Z,98690.94
2023-09-05T12:15:31.177Z,98698.56
2023-09-05T12:18:01.175Z,98699.84
2023-09-05T12:20:28.051Z,98690.69
2023-09-05T12:22:54.934Z,98693.38
2023-09-05T12:25:26.378Z,98690.81
2023-09-05T12:27:59.795Z,98679.78
2023-09-05T12:30:26.547Z,98681.25
2023-09-05T12:33:01.730Z,98676.13
2023-09-05T12:38:08.847Z,98669.63
2023-09-05T12:40:38.508Z,98673.06
2023-09-05T12:43:05.648Z,98663.59
2023-09-05T12:45:34.375Z,98651.63
2023-09-05T12:48:01.500Z,98653.25
2023-09-05T12:50:36.641Z,98653.66
2023-09-05T12:53:04.277Z,98649.78
2023-09-05T12:55:33.674Z,98645.84
2023-09-05T12:58:04.393Z,98645.34
2023-09-05T13:00:36.054Z,98648.72
2023-09-05T13:03:04.477Z,98646.22
2023-09-05T13:05:31.884Z,98642.56
2023-09-05T13:07:59.903Z,98628.97
2023-09-05T13:13:01.788Z,98633.66
2023-09-05T13:15:30.960Z,98631.69
2023-09-05T13:17:58.147Z,98617.56
2023-09-05T13:20:25.071Z,98618.13
2023-09-05T13:22:52.694Z,98620.00
2023-09-05T13:25:20.772Z,98613.00
2023-09-05T13:27:48.653Z,98611.31
2023-09-05T13:30:16.218Z,98603.56
2023-09-05T13:32:43.089Z,98600.53
2023-09-05T13:35:10.822Z,98599.31
2023-09-05T13:37:37.775Z,98596.66
2023-09-05T13:40:05.390Z,98604.19
2023-09-05T13:42:32.462Z,98607.00
2023-09-05T13:44:59.255Z,98600.91
2023-09-05T13:49:58.779Z,98604.63
2023-09-05T13:52:25.612Z,98597.84
2023-09-05T13:54:52.346Z,98592.00
2023-09-05T13:57:19.127Z,98591.13
2023-09-05T13:59:46.449Z,98591.25
2023-09-05T14:02:13.321Z,98594.13
2023-09-05T14:04:40.173Z,98592.00
2023-09-05T14:07:08.311Z,98592.59
2023-09-05T14:09:38.058Z,98583.59
2023-09-05T14:12:05.417Z,98586.97
2023-09-05T14:14:32.175Z,98585.13
2023-09-05T14:16:58.897Z,98579.22
2023-09-05T14:19:25.961Z,98583.88
2023-09-05T14:21:52.761Z,98577.09
2023-09-05T14:24:19.552Z,98579.25
2023-09-05T14:26:47.864Z,98571.78
2023-09-05T14:29:15.818Z,98574.16
2023-09-05T14:31:43.211Z,98573.78
2023-09-05T14:34:10.798Z,98571.47
2023-09-05T14:36:37.870Z,98568.47
2023-09-05T14:39:05.299Z,98563.91
2023-09-05T14:41:32.993Z,98556.25
2023-09-05T14:44:04.592Z,98562.06
2023-09-05T14:46:33.837Z,98559.06
2023-09-05T14:49:00.996Z,98554.22
2023-09-05T14:51:27.869Z,98555.19
2023-09-05T14:56:32.940Z,98561.22
2023-09-05T14:58:59.712Z,98561.78
2023-09-05T15:01:26.456Z,98559.47
2023-09-05T15:06:30.335Z,98555.56
2023-09-05T15:08:57.148Z,98555.75
2023-09-05T15:13:57.320Z,98553.22
2023-09-05T15:16:26.432Z,98550.22
2023-09-05T15:18:53.170Z,98556.03
2023-09-05T15:21:19.965Z,98557.66
2023-09-05T15:23:46.681Z,98558.88
2023-09-05T15:26:13.462Z,98564.19
2023-09-05T15:28:41.770Z,98564.47
2023-09-05T15:31:10.055Z,98564.34
2023-09-05T15:33:36.953Z,98562.38
2023-09-05T15:36:03.836Z,98558.50
2023-09-05T15:38:30.758Z,98556.16
2023-09-05T15:40:57.568Z,98559.72
2023-09-05T15:43:24.297Z,98553.53
2023-09-05T15:45:52.611Z,98548.78
2023-09-05T15:48:19.560Z,98547.28
2023-09-05T15:50:46.976Z,98553.34
2023-09-05T15:53:19.652Z,98548.41
2023-09-05T15:55:46.352Z,98546.75
2023-09-05T15:58:13.180Z,98551.44
2023-09-05T16:00:40.350Z,98545.06
2023-09-05T16:03:07.372Z,98545.25
2023-09-05T16:05:34.318Z,98540.31
2023-09-05T16:08:01.573Z,98550.75
2023-09-05T16:10:28.352Z,98558.69
2023-09-05T16:12:55.125Z,98554.97
2023-09-05T16:15:21.886Z,98553.91
2023-09-05T16:17:48.688Z,98552.22
2023-09-05T16:20:15.668Z,98547.88
2023-09-05T16:22:42.421Z,98563.03
2023-09-05T16:25:11.652Z,98565.66
2023-09-05T16:27:38.812Z,98563.47
2023-09-05T16:30:09.486Z,98565.06
2023-09-05T16:32:36.800Z,98567.53
2023-09-05T16:35:03.678Z,98571.91
2023-09-05T16:37:30.438Z,98573.63
2023-09-05T16:39:57.309Z,98573.31
2023-09-05T16:42:24.082Z,98567.25
2023-09-05T16:44:50.837Z,98565.06
2023-09-05T16:47:17.652Z,98565.41
2023-09-05T16:49:44.413Z,98576.28
2023-09-05T16:52:11.349Z,98571.63
2023-09-05T16:57:16.400Z,98571.59
2023-09-05T16:59:43.172Z,98589.16
2023-09-05T17:02:09.973Z,98582.03
2023-09-05T17:04:38.049Z,98589.91
2023-09-05T17:07:05.794Z,98592.06
2023-09-05T17:09:33.012Z,98593.94
2023-09-05T17:11:59.939Z,98598.00
2023-09-05T17:14:27.494Z,98595.78
2023-09-05T17:16:54.262Z,98593.59
2023-09-05T17:19:21.037Z,98597.00
2023-09-05T17:21:47.807Z,98595.75
2023-09-05T17:24:14.549Z,98584.84
2023-09-05T17:26:41.257Z,98584.53
2023-09-05T17:29:07.985Z,98588.84
2023-09-05T17:31:35.117Z,98595.66
2023-09-05T17:34:02.561Z,98590.53
2023-09-05T17:36:29.337Z,98591.38
2023-09-05T17:38:56.167Z,98597.38
2023-09-05T17:41:22.946Z,98597.69
2023-09-05T17:43:51.170Z,98601.88
2023-09-05T17:46:17.952Z,98610.38
2023-09-05T17:48:44.817Z,98602.75
2023-09-05T17:51:12.827Z,98604.44
2023-09-05T17:53:39.659Z,98607.38
2023-09-05T17:56:06.780Z,98618.03
2023-09-05T17:58:33.560Z,98617.69
2023-09-05T18:01:00.362Z,98616.25
2023-09-05T18:03:27.242Z,98620.44
2023-09-05T18:05:54.096Z,98627.16
2023-09-05T18:08:20.910Z,98621.47
2023-09-05T18:10:47.820Z,98632.91
2023-09-05T18:13:14.966Z,98626.28
2023-09-05T18:15:42.928Z,98626.78
2023-09-05T18:18:10.613Z,98628.88
2023-09-05T18:20:41.255Z,98633.06
2023-09-05T18:23:08.103Z,98639.19
2023-09-05T18:25:34.852Z,98639.75
2023-09-05T18:28:01.590Z,98644.31
2023-09-05T18:30:28.547Z,98649.13
2023-09-05T18:32:55.320Z,98646.91
2023-09-05T18:35:22.130Z,98654.47
2023-09-05T18:37:48.972Z,98658.13
2023-09-05T18:40:15.818Z,98652.13
2023-09-05T18:42:42.759Z,98655.50
2023-09-05T18:45:11.023Z,98648.03
2023-09-05T18:47:38.547Z,98651.91
2023-09-05T18:50:06.173Z,98656.88
2023-09-05T18:52:32.940Z,98656.41
2023-09-05T18:54:59.890Z,98657.66
2023-09-05T18:57:26.724Z,98664.00
2023-09-05T18:59:53.503Z,98664.63
2023-09-05T19:02:26.550Z,98665.84
2023-09-05T19:04:53.583Z,98674.78
2023-09-05T19:07:20.335Z,98672.09
2023-09-05T19:09:47.140Z,98667.69
2023-09-05T19:12:15.043Z,98661.00
2023-09-05T19:14:41.809Z,98671.09
2023-09-05T19:17:08.569Z,98659.19
2023-09-05T19:19:36.398Z,98657.34
2023-09-05T19:22:05.202Z,98653.34
2023-09-05T19:27:12.248Z,98664.81
2023-09-05T19:29:39.056Z,98660.56
2023-09-05T19:32:06.318Z,98662.22
2023-09-05T19:34:34.112Z,98659.19
2023-09-05T19:37:00.963Z,98659.44
2023-09-05T19:39:30.580Z,98673.16
2023-09-05T19:41:58.406Z,98673.16
2023-09-05T19:44:25.232Z,98670.38
2023-09-05T19:46:52.052Z,98670.31
2023-09-05T19:49:18.776Z,98676.44
2023-09-05T19:51:45.583Z,98673.00
2023-09-05T19:56:44.640Z,98680.19
2023-09-05T19:59:11.375Z,98677.78
2023-09-05T20:01:40.551Z,98680.44
2023-09-05T20:04:07.944Z,98677.56
2023-09-05T20:06:37.344Z,98679.63
2023-09-05T20:09:05.864Z,98686.69
2023-09-05T20:11:34.816Z,98672.19
2023-09-05T20:14:02.522Z,98684.97
2023-09-05T20:16:29.358Z,98685.19
2023-09-05T20:18:56.227Z,98683.34
2023-09-05T20:23:54.214Z,98685.25
2023-09-05T20:26:20.997Z,98688.44
2023-09-05T20:28:47.733Z,98692.41
2023-09-05T20:31:14.520Z,98694.06
2023-09-05T20:33:41.322Z,98689.38
2023-09-05T20:36:09.135Z,98697.69
2023-09-05T20:38:36.177Z,98693.94
2023-09-05T20:43:40.485Z,98688.59
2023-09-05T20:46:07.404Z,98684.19
2023-09-05T20:48:34.519Z,98684.97
2023-09-05T20:51:01.617Z,98688.22
2023-09-05T20:53:28.422Z,98683.81
2023-09-05T20:55:55.863Z,98698.03
2023-09-05T20:58:22.684Z,98688.31
2023-09-05T21:00:49.665Z,98689.94
2023-09-05T21:03:16.567Z,98686.63
2023-09-05T21:05:43.331Z,98691.69
2023-09-05T21:08:10.082Z,98684.34
2023-09-05T21:10:37.476Z,98682.00
2023-09-05T21:13:05.310Z,98682.00
2023-09-05T21:15:32.113Z,98682.91
2023-09-05T21:17:58.938Z,98683.75
2023-09-05T21:20:25.862Z,98691.66
2023-09-05T21:22:52.716Z,98688.13
2023-09-05T21:25:19.469Z,98699.56
2023-09-05T21:27:46.599Z,98695.63
2023-09-05T21:30:13.396Z,98697.31
2023-09-05T21:32:40.790Z,98697.38
2023-09-05T21:35:08.274Z,98699.81
2023-09-05T21:40:13.260Z,98700.91
2023-09-05T21:42:42.285Z,98708.38
2023-09-05T21:45:09.969Z,98706.00
2023-09-05T21:50:08.654Z,98694.94
2023-09-05T21:52:35.403Z,98695.47
2023-09-05T21:55:02.215Z,98690.47
2023-09-05T21:57:29.068Z,98685.09
2023-09-05T21:59:55.754Z,98688.28
2023-09-05T22:02:22.575Z,98687.63
2023-09-05T22:04:49.410Z,98680.22
2023-09-05T22:07:16.237Z,98683.00
2023-09-05T22:09:43.079Z,98687.41
2023-09-05T22:12:09.842Z,98690.22
2023-09-05T22:14:36.597Z,98696.19
2023-09-05T22:17:03.374Z,98696.34
2023-09-05T22:19:32.531Z,98697.50
2023-09-05T22:22:05.654Z,98691.66
2023-09-05T22:24:33.442Z,98698.47
2023-09-05T22:29:33.053Z,98698.09
2023-09-05T22:32:00.589Z,98692.97
2023-09-05T22:34:27.532Z,98692.56
2023-09-05T22:39:27.365Z,98691.94
2023-09-05T22:41:54.148Z,98692.00
2023-09-05T22:44:20.881Z,98685.69
2023-09-05T22:46:47.632Z,98681.53
2023-09-05T22:49:14.387Z,98685.84
2023-09-05T22:51:42.736Z,98688.63
2023-09-05T22:54:10.813Z,98697.34
2023-09-05T22:56:39.362Z,98691.91
2023-09-05T22:59:07.864Z,98694.63
2023-09-05T23:01:34.633Z,98691.94
2023-09-05T23:04:01.484Z,98699.34
2023-09-05T23:06:28.383Z,98698.25
2023-09-05T23:08:55.184Z,98699.19
2023-09-05T23:11:21.949Z,98696.88
2023-09-05T23:13:48.780Z,98703.66
2023-09-05T23:16:17.116Z,98700.13
2023-09-05T23:18:46.085Z,98704.84
2023-09-05T23:21:13.134Z,98706.44
2023-09-05T23:23:39.877Z,98704.91
2023-09-05T23:26:08.959Z,98705.34
2023-09-05T23:28:36.602Z,98699.81
2023-09-05T23:31:03.589Z,98699.00
2023-09-05T23:33:33.011Z,98697.81
2023-09-05T23:35:59.741Z,98697.47
2023-09-05T23:38:27.915Z,98697.88
2023-09-05T23:40:54.824Z,98693.16
2023-09-05T23:43:21.593Z,98694.34
2023-09-05T23:45:53.052Z,98694.34
2023-09-05T23:48:20.709Z,98701.88
2023-09-05T23:50:47.545Z,98691.63
2023-09-05T23:53:14.565Z,98690.06
2023-09-05T23:55:45.790Z,98686.94
2023-09-05T23:58:13.009Z,98688.16
